AirNav   Duncan Aviation - Near you to keep you flying
 
 516 users online  

45WI Windsong Farm Airport
Woodville, Wisconsin, USA

GOING TO WOODVILLE?


FAA INFORMATION EFFECTIVE 26 JANUARY 2023

Location

FAA Identifier: 45WI
Lat/Long: 44-59-59.8720N 092-17-00.6790W
44-59.997867N 092-17.011317W
44.9999644,-92.2835219
(estimated)
Elevation: 1250 ft. / 381 m (estimated)
Variation: 02E (1985)
From city: 3 miles N of WOODVILLE, WI
Time zone: UTC -6 (UTC -5 during Daylight Saving Time)
Zip code: 54028

Airport Operations

Airport use: Private use. Permission required prior to landing
Activation date: 10/1979
Control tower: no
ARTCC: MINNEAPOLIS CENTER
FSS: GREEN BAY FLIGHT SERVICE STATION
Attendance: UNATNDD
Wind indicator: yes
Segmented circle: no

Airport Communications

WX AWOS-3 at RNH (14 nm NW): 120.0 (715-246-3202)
WX AWOS-3 at LUM (19 nm E): 118.025 (715-235-5342)

Nearby radio navigation aids

VOR radial/distance  VOR name  Freq  Var
EAUr276/34.7EAU CLAIRE VORTAC113.6504E

Airport Services

Runway Information

Runway 5/23

Dimensions: 2000 x 80 ft. / 610 x 24 m
Surface: turf
RUNWAY 5  RUNWAY 23
Traffic pattern: leftleft
Obstructions: roadnone

Airport Ownership and Management from official FAA records

Ownership: Privately-owned
Owner: CHRISTOPER & CHRISTINE HINNENKAMP
1037 260TH ST
WOODVILLE, WI 54028
Phone 715-698-4253
Manager: CHRISTOPER & CHRISTINE HINNENKAMP
1037 260TH ST
WOODVILLE, WI 54028
Phone 715-698-4253

Airport Operational Statistics

Aircraft based on the field: 1
Single engine airplanes: 1
    

Additional Remarks

FOR CD CTC MINNEAPOLIS ARTCC AT 651-463-5588.

Instrument Procedures

There are no published instrument procedures at 45WI.

Some nearby airports with instrument procedures:

3T3 - Boyceville Municipal Airport (11 nm E)
KRNH - New Richmond Regional Airport (14 nm NW)
KAHH - Amery Municipal Airport (17 nm N)
KLUM - Menomonie Municipal Airport-Score Field (19 nm E)
21D - Lake Elmo Airport (24 nm W)
 
Loc | Ops | Rwys | IFR | FBO | Links
Com | Nav | Svcs | Stats | Notes
Area around 45WI (Windsong Farm Airport)
 
Road maps at: MapQuest Bing Google
 
Aerial photo
No photo
 
Sectional chart

 
Airport distance calculator
Flying to Windsong Farm Airport? Find the distance to fly.

From to 45WI

Sunrise and sunset
Times for 27-Jan-2023
 Local
(UTC-6)
 Zulu
(UTC)
Morning civil twilight07:0413:04
Sunrise07:3513:35
Sunset17:0923:09
Evening civil twilight17:4023:40

Current date and time
Zulu (UTC)  27-Jan-2023 10:48:51
Local (UTC-6)  27-Jan-2023 04:48:51
 
METAR
KRNH 
14nm NW 
271035Z AUTO 18014G21KT 4SM -SN OVC013 M05/M05 A2941 RMK AO2 T10481048
KLUM 
19nm E 
271035Z AUTO 15010KT 3SM +RA BKN010 OVC015 M06/M06 A2948 RMK AO2 T10571057
K21D 
24nm W 
271035Z AUTO 18011KT 3SM -SN M05/M06 A2942 RMK AO2
KOEO 
25nm NW 
271035Z AUTO 17009KT 2 1/2SM OVC014 M05/M05 A2944 RMK AO2 T10461046 PWINO
KRGK 
27nm S 
271035Z AUTO 18008KT 5SM -SN OVC016 M04/M07 A2947 RMK AO2
TAF
KRNH 
14nm NW 
271000Z 2710/2806 18015G24KT 4SM -SN BR OVC015 TEMPO 2710/2712 2SM -SN BR BKN008 FM271300 26013G21KT 4SM BLSN OVC009 FM272200 30016G24KT P6SM BKN025 FM280200 30013KT P6SM BKN040
NOTAMs
Click for the latest NOTAMs
NOTAMs are issued by the DoD/FAA and will open in a separate window not controlled by AirNav.

 

 
 

Would you like to see your business listed on this page?

 If your business provides an interesting product or service to pilots, flight crews, aircraft, or users of the Windsong Farm Airport, you should consider listing it here.  To start the listing process, click on the button below
 
Add a business
 

Other Pages about Windsong Farm Airport

Update a link
 
Copyright © AirNav, LLC. All rights reserved. Privacy Policy  Contact